Time;durP1;ratioP1;P1;durP2;ratioP2;P2;SDS_P1;SDS_P2;PMS_P1;PMS_P2;Temp;Humidity;BMP_temperature;BMP_pressure;BME280_temperature;BME280_humidity;BME280_pressure;Samples;Min_cycle;Max_cycle;Signal;HPM_P1;HPM_P2
2022/11/01 00:02:17;;;;;;;17.35;11.20;;;;;;;;;;6120836;23;20264;-79
2022/11/01 00:04:43;;;;;;;20.63;11.70;;;;;;;;;;6121226;23;20024;-79
2022/11/01 00:07:09;;;;;;;17.33;11.73;;;;;;;;;;6121291;23;20697;-79
2022/11/01 00:09:35;;;;;;;20.13;11.18;;;;;;;;;;6073100;23;20018;-79
2022/11/01 00:12:01;;;;;;;19.10;11.10;;;;;;;;;;6095275;23;20022;-79
2022/11/01 00:14:27;;;;;;;17.70;10.82;;;;;;;;;;6095279;23;20025;-79
2022/11/01 00:16:53;;;;;;;19.15;11.68;;;;;;;;;;6119777;23;20627;-78
2022/11/01 00:19:19;;;;;;;18.90;10.05;;;;;;;;;;6094584;23;20099;-78
2022/11/01 00:21:46;;;;;;;15.68;9.55;;;;;;;;;;6119871;23;20014;-79
2022/11/01 00:24:12;;;;;;;14.60;10.63;;;;;;;;;;6120432;23;20338;-79
2022/11/01 00:26:38;;;;;;;16.05;10.60;;;;;;;;;;6119716;23;20029;-79
2022/11/01 00:29:04;;;;;;;22.42;10.73;;;;;;;;;;6096618;23;20014;-79
2022/11/01 00:31:30;;;;;;;15.27;9.50;;;;;;;;;;6096537;23;20022;-79
2022/11/01 00:33:56;;;;;;;20.15;10.60;;;;;;;;;;6096357;23;20014;-79
2022/11/01 00:36:22;;;;;;;15.80;9.50;;;;;;;;;;6072146;23;20049;-79
2022/11/01 00:38:49;;;;;;;16.33;9.27;;;;;;;;;;6120774;23;20149;-79
2022/11/01 00:41:15;;;;;;;13.65;8.43;;;;;;;;;;6120491;23;20064;-79
2022/11/01 00:43:41;;;;;;;16.83;8.73;;;;;;;;;;6095789;23;20013;-79
2022/11/01 00:46:08;;;;;;;18.67;9.63;;;;;;;;;;6120533;23;20417;-79
2022/11/01 00:48:34;;;;;;;15.05;8.98;;;;;;;;;;6120689;23;20123;-79
2022/11/01 00:51:00;;;;;;;17.15;9.13;;;;;;;;;;6119874;23;20029;-79
2022/11/01 00:53:26;;;;;;;17.58;10.35;;;;;;;;;;6119224;23;20341;-79
2022/11/01 00:55:52;;;;;;;13.32;8.90;;;;;;;;;;6120214;23;20079;-79
2022/11/01 00:58:18;;;;;;;14.25;9.30;;;;;;;;;;6095409;23;20093;-79
2022/11/01 01:00:44;;;;;;;15.15;8.88;;;;;;;;;;6094362;23;20028;-79
2022/11/01 01:03:10;;;;;;;13.90;9.35;;;;;;;;;;6120596;23;20420;-79
2022/11/01 01:05:36;;;;;;;15.93;8.75;;;;;;;;;;6094513;23;20053;-79
2022/11/01 01:08:03;;;;;;;17.52;9.20;;;;;;;;;;6120220;23;20332;-79
2022/11/01 01:10:29;;;;;;;14.68;9.13;;;;;;;;;;6120731;23;20010;-79
2022/11/01 01:12:55;;;;;;;13.00;7.95;;;;;;;;;;6119481;23;20084;-79
2022/11/01 01:15:21;;;;;;;17.73;8.85;;;;;;;;;;6119935;23;20057;-79
2022/11/01 01:17:47;;;;;;;16.48;8.65;;;;;;;;;;6120561;23;20426;-79
2022/11/01 01:20:13;;;;;;;15.88;8.80;;;;;;;;;;6119678;23;20018;-79
2022/11/01 01:22:41;;;;;;;15.57;8.98;;;;;;;;;;6119709;23;20092;-79
2022/11/01 01:25:07;;;;;;;18.20;8.85;;;;;;;;;;6120247;23;20569;-79
2022/11/01 01:27:33;;;;;;;15.88;8.35;;;;;;;;;;6119938;23;20017;-79
2022/11/01 01:29:59;;;;;;;13.30;8.63;;;;;;;;;;6095695;23;20033;-79
2022/11/01 01:32:25;;;;;;;13.95;7.75;;;;;;;;;;6120688;23;20100;-79
2022/11/01 01:34:52;;;;;;;16.80;9.27;;;;;;;;;;6119787;23;20076;-79
2022/11/01 01:37:19;;;;;;;14.73;9.45;;;;;;;;;;6120248;23;20020;-79
2022/11/01 01:39:45;;;;;;;15.25;8.85;;;;;;;;;;6120970;23;20014;-79
2022/11/01 01:42:15;;;;;;;18.13;10.05;;;;;;;;;;6119760;23;20359;-79
2022/11/01 01:44:49;;;;;;;23.95;9.23;;;;;;;;;;6119873;23;20344;-79
2022/11/01 01:47:35;;;;;;;14.80;9.43;;;;;;;;;;6095243;23;20069;-79
2022/11/01 01:50:07;;;;;;;12.43;8.82;;;;;;;;;;6119587;23;20022;-79
2022/11/01 01:52:36;;;;;;;15.80;8.18;;;;;;;;;;6120557;23;20360;-79
2022/11/01 01:55:04;;;;;;;15.65;9.38;;;;;;;;;;6095411;23;20097;-79
2022/11/01 01:57:30;;;;;;;12.23;7.63;;;;;;;;;;6120172;23;20126;-79
2022/11/01 01:59:57;;;;;;;13.65;7.90;;;;;;;;;;6118894;23;20089;-79
2022/11/01 02:02:23;;;;;;;15.27;7.65;;;;;;;;;;6096178;23;20126;-79
2022/11/01 02:05:00;;;;;;;13.57;8.38;;;;;;;;;;6120200;23;20503;-79
2022/11/01 02:07:26;;;;;;;11.82;7.07;;;;;;;;;;6120162;23;20018;-79
2022/11/01 02:09:53;;;;;;;17.27;8.07;;;;;;;;;;6120166;23;20572;-79
2022/11/01 02:12:20;;;;;;;11.07;8.15;;;;;;;;;;6095904;23;20120;-79
2022/11/01 02:14:46;;;;;;;13.93;7.68;;;;;;;;;;6119932;23;20018;-79
2022/11/01 02:17:15;;;;;;;20.27;8.55;;;;;;;;;;6120120;23;20014;-79
2022/11/01 02:19:44;;;;;;;18.90;8.38;;;;;;;;;;6120492;23;20065;-79
2022/11/01 02:22:20;;;;;;;16.40;7.65;;;;;;;;;;6095752;23;20017;-79
2022/11/01 02:24:46;;;;;;;13.35;7.55;;;;;;;;;;6120200;23;20017;-79
2022/11/01 02:27:13;;;;;;;15.60;7.30;;;;;;;;;;6095890;23;20124;-79
2022/11/01 02:29:45;;;;;;;11.27;7.07;;;;;;;;;;6120481;23;20074;-79
2022/11/01 02:32:16;;;;;;;14.60;8.82;;;;;;;;;;6119902;23;20018;-79
2022/11/01 02:34:42;;;;;;;16.45;6.45;;;;;;;;;;6119904;23;20100;-79
2022/11/01 02:37:35;;;;;;;13.70;7.72;;;;;;;;;;6119683;23;20031;-79
2022/11/01 02:40:11;;;;;;;11.20;7.60;;;;;;;;;;6090472;23;20016;-79
2022/11/01 02:42:48;;;;;;;12.75;6.88;;;;;;;;;;6119880;23;20642;-79
2022/11/01 02:45:27;;;;;;;11.73;7.53;;;;;;;;;;6118198;23;20341;-79
2022/11/01 02:47:57;;;;;;;12.48;7.35;;;;;;;;;;6094103;23;20104;-79
2022/11/01 02:50:24;;;;;;;14.05;7.78;;;;;;;;;;6094977;23;20069;-79
2022/11/01 02:52:51;;;;;;;11.02;7.13;;;;;;;;;;6095624;23;20014;-79
2022/11/01 02:55:28;;;;;;;11.82;6.68;;;;;;;;;;6096086;23;20018;-79
2022/11/01 02:58:02;;;;;;;11.52;7.20;;;;;;;;;;6120205;23;20014;-79
2022/11/01 03:00:29;;;;;;;12.00;6.75;;;;;;;;;;6095538;23;20010;-79
2022/11/01 03:02:59;;;;;;;11.18;6.93;;;;;;;;;;6071408;23;20386;-79
2022/11/01 03:05:37;;;;;;;15.93;6.72;;;;;;;;;;6095952;23;20017;-79
2022/11/01 03:08:05;;;;;;;13.68;6.63;;;;;;;;;;6120399;23;20014;-79
2022/11/01 03:10:51;;;;;;;11.70;6.93;;;;;;;;;;6119341;23;20018;-79
2022/11/01 03:13:36;;;;;;;11.13;7.05;;;;;;;;;;6119110;23;20619;-79
2022/11/01 03:16:18;;;;;;;12.40;6.97;;;;;;;;;;6119620;23;20018;-79
2022/11/01 03:19:04;;;;;;;12.63;6.90;;;;;;;;;;6119499;23;20123;-79
2022/11/01 03:21:35;;;;;;;12.02;7.00;;;;;;;;;;6095262;23;20076;-79
2022/11/01 03:24:16;;;;;;;11.73;7.20;;;;;;;;;;6119909;23;20006;-79
2022/11/01 03:26:45;;;;;;;12.85;7.45;;;;;;;;;;6118993;23;20013;-79
2022/11/01 03:29:11;;;;;;;14.70;7.80;;;;;;;;;;6119797;23;20072;-79
2022/11/01 03:31:39;;;;;;;12.70;7.10;;;;;;;;;;6069737;23;20048;-79
2022/11/01 03:34:07;;;;;;;11.63;6.85;;;;;;;;;;6092773;23;20029;-79
2022/11/01 03:36:38;;;;;;;10.45;6.60;;;;;;;;;;6094075;23;20010;-79
2022/11/01 03:39:06;;;;;;;11.60;6.82;;;;;;;;;;6118010;23;20020;-79
2022/11/01 03:41:35;;;;;;;11.05;6.72;;;;;;;;;;6118161;23;20407;-79
2022/11/01 03:44:02;;;;;;;11.98;6.28;;;;;;;;;;6094539;23;20022;-79
2022/11/01 03:46:28;;;;;;;10.82;5.95;;;;;;;;;;6119513;23;20644;-79
2022/11/01 03:48:54;;;;;;;11.15;6.10;;;;;;;;;;6120788;23;20552;-79
2022/11/01 03:51:20;;;;;;;12.05;6.72;;;;;;;;;;6121720;23;20037;-79
2022/11/01 03:53:46;;;;;;;11.57;7.15;;;;;;;;;;6097297;23;20648;-79
2022/11/01 03:56:13;;;;;;;15.77;7.28;;;;;;;;;;6096729;23;20026;-79
2022/11/01 03:58:45;;;;;;;13.10;6.55;;;;;;;;;;6120821;23;20018;-79
2022/11/01 04:01:12;;;;;;;12.07;5.78;;;;;;;;;;6121738;23;20090;-79
2022/11/01 04:03:38;;;;;;;14.02;6.72;;;;;;;;;;6120758;23;20017;-79
2022/11/01 04:06:05;;;;;;;10.68;6.97;;;;;;;;;;6121139;23;20022;-79
2022/11/01 04:08:31;;;;;;;12.43;6.70;;;;;;;;;;6073141;23;20025;-79
2022/11/01 04:10:58;;;;;;;11.10;5.88;;;;;;;;;;6120353;23;20080;-79
2022/11/01 04:13:24;;;;;;;9.57;5.90;;;;;;;;;;6119145;23;20022;-79
2022/11/01 04:21:21;;;;;;;10.98;6.53;;;;;;;;;;6095469;23;20075;-79
2022/11/01 04:23:47;;;;;;;12.27;5.53;;;;;;;;;;6120967;23;20681;-79
2022/11/01 04:26:14;;;;;;;8.52;6.03;;;;;;;;;;6120680;23;20360;-79
2022/11/01 04:28:40;;;;;;;11.73;5.57;;;;;;;;;;6096026;23;20018;-79
2022/11/01 04:31:07;;;;;;;14.57;6.38;;;;;;;;;;6117948;23;20032;-79
2022/11/01 04:33:33;;;;;;;11.00;6.82;;;;;;;;;;6120300;23;20030;-79
2022/11/01 04:36:03;;;;;;;13.70;6.07;;;;;;;;;;6096085;23;20381;-79
2022/11/01 04:38:29;;;;;;;14.60;5.80;;;;;;;;;;6120992;23;20050;-79
2022/11/01 04:40:55;;;;;;;9.35;6.50;;;;;;;;;;6072875;23;20065;-79
2022/11/01 04:43:22;;;;;;;14.52;6.38;;;;;;;;;;6095941;23;20013;-79
2022/11/01 04:45:57;;;;;;;10.55;6.15;;;;;;;;;;6120203;23;20014;-79
2022/11/01 04:48:23;;;;;;;11.77;6.43;;;;;;;;;;6121242;23;20452;-79
2022/11/01 04:50:49;;;;;;;10.25;5.35;;;;;;;;;;6120564;23;20073;-79
2022/11/01 04:53:15;;;;;;;9.43;6.18;;;;;;;;;;6120150;23;20022;-79
2022/11/01 04:55:41;;;;;;;9.75;4.70;;;;;;;;;;6121385;23;20100;-79
2022/11/01 04:58:09;;;;;;;9.43;5.30;;;;;;;;;;6119899;23;20093;-79
2022/11/01 05:00:35;;;;;;;11.05;5.57;;;;;;;;;;6120842;23;20036;-79
2022/11/01 05:03:02;;;;;;;6.38;3.42;;;;;;;;;;6120852;23;20009;-79
2022/11/01 05:05:28;;;;;;;9.07;3.60;;;;;;;;;;6121208;23;20671;-79
2022/11/01 05:08:24;;;;;;;6.65;2.40;;;;;;;;;;6119485;23;20053;-79
2022/11/01 05:10:52;;;;;;;5.65;2.05;;;;;;;;;;6096035;23;20105;-79
2022/11/01 05:13:18;;;;;;;6.95;2.45;;;;;;;;;;6096185;23;20020;-79
2022/11/01 05:15:44;;;;;;;5.45;2.08;;;;;;;;;;6095845;23;20017;-79
2022/11/01 05:18:10;;;;;;;4.65;1.77;;;;;;;;;;6120993;23;20069;-79
2022/11/01 05:20:36;;;;;;;3.33;1.50;;;;;;;;;;6120093;23;20021;-79
2022/11/01 05:23:03;;;;;;;6.00;1.88;;;;;;;;;;6120523;23;20021;-79
2022/11/01 05:25:29;;;;;;;2.22;1.30;;;;;;;;;;6120959;23;20096;-79
2022/11/01 05:27:59;;;;;;;2.22;1.38;;;;;;;;;;6120960;23;20571;-79
2022/11/01 05:30:26;;;;;;;4.38;1.25;;;;;;;;;;6120363;23;20101;-79
2022/11/01 05:33:01;;;;;;;5.55;1.65;;;;;;;;;;6095870;23;20097;-79
2022/11/01 05:35:28;;;;;;;5.07;1.48;;;;;;;;;;6120304;23;20018;-79
2022/11/01 05:37:54;;;;;;;4.60;1.65;;;;;;;;;;6120475;23;20471;-78
2022/11/01 05:40:20;;;;;;;2.50;1.25;;;;;;;;;;6119107;23;20540;-79
2022/11/01 05:42:47;;;;;;;3.95;1.60;;;;;;;;;;6094670;23;20129;-79
2022/11/01 05:45:13;;;;;;;1.95;1.15;;;;;;;;;;6118178;23;20018;-79
2022/11/01 05:47:39;;;;;;;6.45;2.10;;;;;;;;;;6118992;23;20076;-79
2022/11/01 05:50:06;;;;;;;5.22;1.70;;;;;;;;;;6093985;23;20068;-79
2022/11/01 05:52:33;;;;;;;5.57;1.50;;;;;;;;;;6094253;23;20120;-79
2022/11/01 05:54:59;;;;;;;16.77;2.15;;;;;;;;;;6117607;23;20116;-79
2022/11/01 05:57:25;;;;;;;3.75;1.83;;;;;;;;;;6117860;23;20021;-79
2022/11/01 05:59:51;;;;;;;3.28;1.73;;;;;;;;;;6092978;23;20080;-79
2022/11/01 06:02:18;;;;;;;6.32;2.65;;;;;;;;;;6092260;23;20026;-79
2022/11/01 06:04:44;;;;;;;4.30;1.90;;;;;;;;;;6091435;23;20145;-79
2022/11/01 06:07:10;;;;;;;7.05;1.92;;;;;;;;;;6044330;23;20025;-80
2022/11/01 06:09:36;;;;;;;3.15;1.63;;;;;;;;;;6116403;23;20010;-79
2022/11/01 06:12:02;;;;;;;7.00;1.92;;;;;;;;;;6117178;23;20014;-79
2022/11/01 06:14:28;;;;;;;10.80;2.45;;;;;;;;;;6117173;23;20095;-79
2022/11/01 06:16:54;;;;;;;5.90;1.88;;;;;;;;;;6116771;23;20014;-79
2022/11/01 06:19:20;;;;;;;3.97;1.95;;;;;;;;;;6114957;23;20021;-81
2022/11/01 06:21:46;;;;;;;4.43;2.13;;;;;;;;;;6115955;23;20094;-81
2022/11/01 06:24:13;;;;;;;5.90;2.00;;;15.60;99.90;;;;;;6117071;23;20365;-81
2022/11/01 06:26:39;;;;;;;6.25;2.47;;;;;;;;;;6067813;23;20091;-82
2022/11/01 06:29:05;;;;;;;3.40;1.40;;;;;;;;;;6116825;23;20041;-81
2022/11/01 06:31:31;;;;;;;9.70;2.35;;;;;;;;;;6114673;23;20022;-81
2022/11/01 06:33:57;;;;;;;10.05;2.53;;;;;;;;;;6115231;23;20018;-81
2022/11/01 06:36:23;;;;;;;4.55;2.17;;;;;;;;;;6089360;23;20014;-78
2022/11/01 06:38:50;;;;;;;6.40;2.40;;;;;;;;;;6088641;23;20013;-78
2022/11/01 06:41:19;;;;;;;13.52;2.30;;;;;;;;;;6089460;23;20100;-79
2022/11/01 06:43:48;;;;;;;12.88;2.30;;;;;;;;;;6066875;23;20105;-80
2022/11/01 06:46:14;;;;;;;6.57;2.25;;;;;;;;;;6115853;23;20022;-80
2022/11/01 06:48:40;;;;;;;8.60;2.67;;;;;;;;;;6117505;23;20588;-80
2022/11/01 06:51:06;;;;;;;6.93;2.28;;;;;;;;;;6116456;23;20044;-79
2022/11/01 06:53:32;;;;;;;11.68;3.90;;;;;;;;;;6117050;23;20377;-80
2022/11/01 06:55:59;;;;;;;7.22;2.35;;;;;;;;;;6117023;23;20025;-79
2022/11/01 06:58:25;;;;;;;6.88;2.13;;;;;;;;;;6116779;23;20036;-78
2022/11/01 07:00:51;;;;;;;7.20;2.83;;;;;;;;;;6115137;23;20029;-80
2022/11/01 07:03:17;;;;;;;9.63;2.67;;;;;;;;;;6115525;23;20014;-80
2022/11/01 07:05:43;;;;;;;8.52;2.90;;;;;;;;;;6117280;23;20018;-84
2022/11/01 07:08:14;;;;;;;5.70;2.63;;;;;;;;;;6118230;23;20101;-82
2022/11/01 07:10:41;;;;;;;8.95;2.70;;;;;;;;;;6092666;23;20137;-80
2022/11/01 07:13:09;;;;;;;15.10;3.22;;;;;;;;;;6095649;23;20033;-79
2022/11/01 07:15:35;;;;;;;9.77;3.00;;;;;;;;;;6119892;23;20069;-80
2022/11/01 07:18:02;;;;;;;11.32;3.53;;;;;;;;;;6120168;23;20097;-80
2022/11/01 07:20:30;;;;;;;7.68;1.90;;;;;;;;;;6120904;23;20441;-80
2022/11/01 07:22:59;;;;;;;6.22;2.13;;;;;;;;;;6074699;23;20018;-80
2022/11/01 07:25:25;;;;;;;14.25;3.08;;;;;;;;;;6122248;23;20021;-80
2022/11/01 07:27:52;;;;;;;5.93;2.22;;;;;;;;;;6097995;23;20021;-79
2022/11/01 07:30:18;;;;;;;12.00;3.22;;;;;;;;;;6118264;23;20501;-80
2022/11/01 07:32:44;;;;;;;11.75;4.03;;;;;;;;;;6118995;23;20022;-80
2022/11/01 07:35:10;;;;;;;8.43;2.58;;;;;;;;;;6119580;23;20019;-80
2022/11/01 07:37:36;;;;;;;11.30;2.45;;;;;;;;;;6069545;23;20121;-80
2022/11/01 07:40:03;;;;;;;9.48;3.65;;;;;;;;;;6121686;23;20014;-80
2022/11/01 07:42:29;;;;;;;6.72;2.08;;;;;;;;;;6120858;23;20010;-80
2022/11/01 07:44:55;;;;;;;11.90;3.50;;;;;;;;;;6120733;23;20018;-80
2022/11/01 07:47:21;;;;;;;11.15;3.08;;;;;;;;;;6121405;23;20034;-80
2022/11/01 07:49:49;;;;;;;9.63;2.72;;;;;;;;;;6121010;23;20325;-80
2022/11/01 07:52:15;;;;;;;15.73;3.53;;;;;;;;;;6120344;23;20017;-80
2022/11/01 07:54:41;;;;;;;10.32;4.60;;;;;;;;;;6120264;23;20017;-80
2022/11/01 07:57:08;;;;;;;11.38;3.42;;;;;;;;;;6121081;23;20014;-80
2022/11/01 07:59:34;;;;;;;11.57;3.95;;;;;;;;;;6071700;23;20010;-80
2022/11/01 08:02:00;;;;;;;11.82;4.60;;;;;;;;;;6095831;23;20053;-80
2022/11/01 08:04:26;;;;;;;9.13;3.15;;;;;;;;;;6120295;23;20525;-79
2022/11/01 08:06:52;;;;;;;15.30;3.55;;;;;;;;;;6093480;23;20485;-80
2022/11/01 08:09:20;;;;;;;15.25;3.85;;;;;;;;;;6069313;23;20022;-80
2022/11/01 08:11:46;;;;;;;6.35;2.88;;;;;;;;;;6117922;23;20026;-80
2022/11/01 08:14:13;;;;;;;10.70;3.25;;;;;;;;;;6117637;23;20052;-79
2022/11/01 08:16:39;;;;;;;13.85;3.20;;;;;;;;;;6115939;23;20014;-80
2022/11/01 08:19:05;;;;;;;10.40;3.83;;;;;;;;;;6116349;23;20032;-79
2022/11/01 08:21:31;;;;;;;14.45;4.70;;;;;;;;;;6117586;23;20010;-80
2022/11/01 08:23:57;;;;;;;10.50;3.22;;;;;;;;;;6092455;23;20089;-80
2022/11/01 08:26:23;;;;;;;11.82;3.72;;;;;;;;;;6092212;23;20014;-80
2022/11/01 08:28:49;;;;;;;11.85;3.80;;;;;;;;;;6092469;23;20273;-80
2022/11/01 08:31:16;;;;;;;13.23;5.20;;;;;;;;;;6092656;23;20026;-79
2022/11/01 08:33:42;;;;;;;19.20;5.25;;;;;;;;;;6092332;23;20022;-79
2022/11/01 08:36:08;;;;;;;13.32;3.88;;;;;;;;;;6092380;23;20017;-79
2022/11/01 08:38:34;;;;;;;16.90;4.40;;;;;;;;;;6117791;23;20013;-80
2022/11/01 08:41:00;;;;;;;24.90;5.10;;;;;;;;;;6116395;23;20010;-79
2022/11/01 08:43:26;;;;;;;14.82;3.53;;;;;;;;;;6116149;23;20511;-79
2022/11/01 08:45:52;;;;;;;14.27;5.03;;;;;;;;;;6116550;23;20060;-79
2022/11/01 08:48:18;;;;;;;16.35;4.45;;;;;;;;;;6116429;23;20030;-79
2022/11/01 08:50:44;;;;;;;14.10;4.53;;;;;;;;;;6116204;23;20018;-79
2022/11/01 08:53:12;;;;;;;12.93;4.28;;;;;;;;;;6117163;23;20014;-79
2022/11/01 08:55:39;;;;;;;13.85;4.07;;;;;;;;;;6068416;23;20018;-79
2022/11/01 08:58:05;;;;;;;14.27;3.90;;;;;;;;;;6116593;23;20052;-79
2022/11/01 09:00:31;;;;;;;12.93;4.60;;;;;;;;;;6117019;23;20006;-79
2022/11/01 09:02:57;;;;;;;16.40;4.75;;;;;;;;;;6118572;23;20053;-79
2022/11/01 09:05:23;;;;;;;12.90;3.90;;;;;;;;;;6118016;23;20029;-79
2022/11/01 09:07:55;;;;;;;13.10;4.68;;;;;;;;;;6116374;23;20398;-79
2022/11/01 09:10:21;;;;;;;12.85;4.60;;;;;;;;;;6118285;23;20092;-79
2022/11/01 09:12:47;;;;;;;13.65;4.57;;;;;;;;;;6117108;23;20041;-79
2022/11/01 09:15:13;;;;;;;11.88;5.25;;;;;;;;;;6117919;23;20448;-78
2022/11/01 09:17:39;;;;;;;8.25;3.75;;;;;;;;;;6116212;23;20054;-79
2022/11/01 09:20:07;;;;;;;17.67;4.93;;;;;;;;;;6116716;23;20018;-79
2022/11/01 09:22:33;;;;;;;17.25;3.70;;;;;;;;;;6115344;23;20014;-79
2022/11/01 09:25:00;;;;;;;22.38;5.40;;;;;;;;;;6116034;23;20022;-79
2022/11/01 09:27:26;;;;;;;16.63;5.07;;;;;;;;;;6093455;23;20014;-79
2022/11/01 09:29:52;;;;;;;13.75;4.20;;;;;;;;;;6093471;23;20120;-79
2022/11/01 09:32:18;;;;;;;17.45;3.90;;;;;;;;;;6067566;23;20425;-79
2022/11/01 09:34:45;;;;;;;16.75;4.68;;;;;;;;;;6115478;23;20018;-79
2022/11/01 09:37:12;;;;;;;13.98;4.10;;;;;;;;;;6117710;23;20070;-81
2022/11/01 09:39:38;;;;;;;14.82;4.82;;;;;;;;;;6091370;23;20419;-79
2022/11/01 09:42:06;;;;;;;13.90;4.15;;;;;;;;;;6068055;23;20046;-79
2022/11/01 09:44:53;;;;;;;15.43;3.92;;;;;;;;;;6067870;23;20013;-79
2022/11/01 09:47:21;;;;;;;13.45;4.10;;;;;;;;;;6116854;23;20014;-79
2022/11/01 09:49:49;;;;;;;24.50;5.25;;;;;;;;;;6116292;23;20014;-79
2022/11/01 09:52:19;;;;;;;17.85;4.40;;;;;;;;;;6115113;23;20020;-79
2022/11/01 09:54:46;;;;;;;13.07;5.00;;;;;;;;;;6115955;23;20263;-79
2022/11/01 09:57:27;;;;;;;15.50;4.45;;;;;;;;;;6116699;23;20471;-79
2022/11/01 10:00:03;;;;;;;13.02;4.88;;;;;;;;;;6117051;23;20484;-79
2022/11/01 10:02:41;;;;;;;14.15;3.90;;;;;;;;;;6116535;23;20038;-79
2022/11/01 10:05:26;;;;;;;12.48;3.75;;;;;;;;;;6091655;23;20014;-79
2022/11/01 10:07:59;;;;;;;11.52;4.03;;;;;;;;;;6067393;23;20097;-79
2022/11/01 10:10:28;;;;;;;17.23;4.72;;;;;;;;;;6091526;23;20014;-79
2022/11/01 10:13:07;;;;;;;13.95;3.95;;;;;;;;;;6091996;23;20092;-79
2022/11/01 10:15:46;;;;;;;10.77;3.65;;;;;;;;;;6115341;23;20053;-79
2022/11/01 10:18:20;;;;;;;11.93;4.80;;;;;;;;;;6116204;23;20049;-79
2022/11/01 10:20:47;;;;;;;14.80;3.67;;;;;;;;;;6115756;23;20049;-79
2022/11/01 10:23:16;;;;;;;12.35;4.85;;;;;;;;;;6115603;23;20013;-79
2022/11/01 10:25:45;;;;;;;9.77;3.80;;;;;;;;;;6090860;23;20056;-79
2022/11/01 10:28:14;;;;;;;14.65;4.25;;;;;;;;;;6115332;23;20021;-79
2022/11/01 10:30:45;;;;;;;18.92;5.32;;;;;;;;;;6115404;23;20037;-79
2022/11/01 10:33:30;;;;;;;13.23;4.63;;;;;;;;;;6091075;23;20029;-79
2022/11/01 10:36:01;;;;;;;13.98;4.45;;;;;;;;;;6115348;23;20018;-79
2022/11/01 10:38:36;;;;;;;8.05;3.42;;;;;;;;;;6113602;23;20674;-79
2022/11/01 10:41:09;;;;;;;14.63;4.45;;;;;;;;;;6114827;23;20014;-80
2022/11/01 10:43:37;;;;;;;10.57;3.78;;;;;;;;;;6115706;23;20101;-79
2022/11/01 10:46:06;;;;;;;14.98;5.00;;;;;;;;;;6115416;23;20049;-79
2022/11/01 10:48:33;;;;;;;13.80;4.15;;;;;;;;;;6115799;23;20105;-80
2022/11/01 10:51:02;;;;;;;15.55;4.80;;;;;;;;;;6115726;23;20028;-79
2022/11/01 10:53:29;;;;;;;14.00;4.72;;;;;;;;;;6116804;23;20014;-79
2022/11/01 10:55:58;;;;;;;14.68;4.35;;;;;;;;;;6119184;23;20440;-79
2022/11/01 10:58:34;;;;;;;14.90;3.67;;;;;;;;;;6120127;23;20305;-79
2022/11/01 11:01:01;;;;;;;9.20;4.50;;;;;;;;;;6121753;23;20585;-79
2022/11/01 11:03:32;;;;;;;12.00;4.28;;;;;;;;;;6121438;23;20010;-79
2022/11/01 11:06:08;;;;;;;19.90;4.32;;;;;;;;;;6122295;23;20135;-80
2022/11/01 11:08:36;;;;;;;10.13;3.80;;;;;;;;;;6121303;23;20021;-79
2022/11/01 11:11:07;;;;;;;18.27;4.22;;;;;;;;;;6097192;23;20302;-79
2022/11/01 11:13:34;;;;;;;11.20;3.53;;;;;;;;;;6097433;23;20062;-79
2022/11/01 11:16:04;;;;;;;17.48;4.18;;;;;;;;;;6120056;23;20685;-80
2022/11/01 11:18:36;;;;;;;12.00;3.40;;;;;;;;;;6116699;23;20017;-79
2022/11/01 11:21:05;;;;;;;12.52;4.75;;;;;;;;;;6065916;23;20021;-80
2022/11/01 11:23:33;;;;;;;14.38;5.03;;;;;;;;;;6115470;23;20223;-79
2022/11/01 11:26:04;;;;;;;19.33;4.95;;;;;;;;;;6115744;23;20108;-79
2022/11/01 11:28:32;;;;;;;11.40;3.83;;;;;;;;;;6117362;23;20049;-79
2022/11/01 11:31:12;;;;;;;8.48;3.30;;;;;;;;;;6072637;23;20029;-79
2022/11/01 11:33:38;;;;;;;10.77;4.68;;;;;;;;;;6070808;23;20060;-79
2022/11/01 11:36:06;;;;;;;11.98;4.63;;;;;;;;;;6094884;23;20629;-80
2022/11/01 11:38:42;;;;;;;17.15;5.35;;;;;;;;;;6116752;23;20106;-79
2022/11/01 11:41:09;;;;;;;17.67;3.88;;;;;;;;;;6070017;23;20010;-81
2022/11/01 11:43:39;;;;;;;14.02;4.38;;;;;;;;;;6118733;23;20016;-80
2022/11/01 11:46:07;;;;;;;11.35;4.07;;;;;;;;;;6095423;23;20349;-80
2022/11/01 11:48:33;;;;;;;14.20;3.50;;;;;;;;;;6117499;23;20021;-81
2022/11/01 11:51:01;;;;;;;9.32;4.13;;;;;;;;;;6117673;23;20341;-80
2022/11/01 11:53:28;;;;;;;16.48;4.50;;;;;;;;;;6093764;23;20511;-80
2022/11/01 11:55:54;;;;;;;11.60;4.05;;;;;;;;;;6069290;23;20030;-80
2022/11/01 11:58:38;;;;;;;13.73;5.28;;;;;;;;;;6117440;23;20093;-80
2022/11/01 12:01:06;;;;;;;9.63;3.25;;;;;;;;;;6117253;23;20415;-80
2022/11/01 12:03:44;;;;;;;10.18;3.72;;;;;;;;;;6091765;23;20010;-80
2022/11/01 12:06:10;;;;;;;13.65;4.88;;;;;;;;;;6067370;23;20018;-81
2022/11/01 12:08:42;;;;;;;11.00;4.45;;;;;;;;;;6093244;23;20025;-80
2022/11/01 12:11:08;;;;;;;9.32;3.55;;;;;;;;;;6093290;23;20044;-80
2022/11/01 12:13:36;;;;;;;11.38;3.80;;;;;;;;;;6119193;23;20020;-80
2022/11/01 12:16:08;;;;;;;12.30;3.78;;;;;;;;;;6118738;23;20022;-80
2022/11/01 12:18:34;;;;;;;11.45;3.60;;;;;;;;;;6116731;23;20014;-80
2022/11/01 12:21:00;;;;;;;13.18;4.25;;;;;;;;;;6117404;23;20020;-80
2022/11/01 12:23:32;;;;;;;14.60;3.47;;;;;;;;;;6093296;23;20031;-79
2022/11/01 12:25:59;;;;;;;13.40;3.70;;;;;;;;;;6119300;23;20014;-80
2022/11/01 12:28:37;;;;;;;15.43;3.63;;;;;;;;;;6118038;23;20022;-79
2022/11/01 12:31:08;;;;;;;8.38;3.70;;;;;;;;;;6117335;23;20443;-80
2022/11/01 12:33:40;;;;;;;7.65;3.10;;;;;;;;;;6092889;23;20020;-80
2022/11/01 12:36:07;;;;;;;9.32;3.80;;;;;;;;;;6068783;23;20073;-80
2022/11/01 12:38:37;;;;;;;7.55;3.35;;;;;;;;;;6092540;23;20056;-80
2022/11/01 12:41:24;;;;;;;12.98;3.63;;;;;;;;;;6117856;23;20060;-79
2022/11/01 12:43:50;;;;;;;8.50;3.70;;;;;;;;;;6093272;23;20013;-80
2022/11/01 12:46:33;;;;;;;10.52;3.13;;;;;;;;;;6116985;23;20021;-80
2022/11/01 12:49:05;;;;;;;8.85;3.63;;;;;;;;;;6116613;23;20045;-80
2022/11/01 12:51:31;;;;;;;;;;;;;;;;;;6117047;23;20361;-80
2022/11/01 12:54:16;;;;;;;13.70;3.63;;;;;;;;;;6092432;23;19923;-80
2022/11/01 12:56:42;;;;;;;8.60;3.45;;;;;;;;;;6117179;23;20376;-80
2022/11/01 12:59:11;;;;;;;8.13;3.17;;;;;;;;;;6067835;23;20340;-80
2022/11/01 13:01:49;;;;;;;13.05;3.83;;;;;;;;;;6116564;23;20017;-80
2022/11/01 13:04:36;;;;;;;10.65;3.05;;;;;;;;;;6117449;23;20028;-80
2022/11/01 13:07:08;;;;;;;12.95;3.65;;;;;;;;;;6093825;23;20014;-79
2022/11/01 13:09:55;;;;;;;7.97;3.00;;;;;;;;;;6091819;23;20439;-80
2022/11/01 13:12:41;;;;;;;6.38;2.30;;;;;;;;;;6010887;23;20246;-79
2022/11/01 13:15:13;;;;;;;12.75;3.88;;;;;;;;;;6140436;23;20024;-80
2022/11/01 13:17:39;;;;;;;14.35;3.42;;;;;;;;;;6092926;23;20072;-80
2022/11/01 13:20:24;;;;;;;10.85;3.20;;;;;;;;;;6117462;23;20045;-80
2022/11/01 13:22:59;;;;;;;9.18;2.80;;;;;;;;;;6117527;23;20022;-79
2022/11/01 13:25:35;;;;;;;6.78;2.80;;;;;;;;;;6117502;23;20495;-80
2022/11/01 13:28:13;;;;;;;12.55;4.03;;;;;;;;;;6116898;23;20076;-80
2022/11/01 13:30:43;;;;;;;7.88;2.53;;;;;;;;;;6117507;23;20030;-79
2022/11/01 13:33:20;;;;;;;6.22;2.47;;;;;;;;;;6093176;23;20021;-80
2022/11/01 13:35:46;;;;;;;6.43;2.50;;;;;;;;;;6091205;23;20233;-82
2022/11/01 13:38:20;;;;;;;10.70;3.35;;;;;;;;;;6117289;23;20408;-82
2022/11/01 13:40:49;;;;;;;7.50;2.85;;;;;;;;;;6117105;23;20014;-82
2022/11/01 13:43:18;;;;;;;12.07;3.63;;;;;;;;;;6093544;23;20568;-82
2022/11/01 13:45:45;;;;;;;19.00;3.38;;;;;;;;;;6094000;23;20017;-82
2022/11/01 13:48:22;;;;;;;10.98;3.10;;;;;;;;;;6070799;23;20014;-82
2022/11/01 13:50:48;;;;;;;8.93;2.83;;;;;;;;;;6071120;23;20085;-82
2022/11/01 13:53:20;;;;;;;7.13;2.22;;;;;;;;;;6118183;23;20037;-82
2022/11/01 13:55:55;;;;;;;7.47;2.15;;;;;;;;;;6117931;23;20067;-82
2022/11/01 13:58:25;;;;;;;8.35;2.80;;;;;;;;;;6116504;23;20495;-81
2022/11/01 14:00:53;;;;;;;7.95;2.60;;;;;;;;;;6093788;23;20014;-82
2022/11/01 14:03:32;;;;;;;5.97;2.05;;;;;;;;;;6092185;23;20017;-81
2022/11/01 14:06:10;;;;;;;13.18;3.70;;;;;;;;;;6092816;23;20377;-81
2022/11/01 14:08:37;;;;;;;7.20;2.58;;;;;;;;;;6092269;23;20053;-81
2022/11/01 14:11:03;;;;;;;13.90;2.47;;;;;;;;;;6118010;23;20518;-81
2022/11/01 14:13:31;;;;;;;10.25;2.47;;;;;;;;;;6118075;23;20077;-82
2022/11/01 14:15:58;;;;;;;8.02;2.65;;;;;;;;;;6091702;23;20466;-80
2022/11/01 14:18:25;;;;;;;8.02;2.55;;;;;;;;;;6116094;23;20017;-80
2022/11/01 14:20:53;;;;;;;8.07;3.30;;;;;;;;;;6117354;23;20021;-79
2022/11/01 14:23:28;;;;;;;6.45;2.22;;;;;;;;;;6117085;23;20456;-80
2022/11/01 14:26:13;;;;;;;7.38;2.35;;;;;;;;;;6116426;23;20018;-80
2022/11/01 14:28:43;;;;;;;8.93;2.90;;;;;;;;;;6093311;23;20546;-80
2022/11/01 14:31:09;;;;;;;5.35;2.58;;;;;;;;;;6116948;23;20025;-81
2022/11/01 14:33:35;;;;;;;10.48;2.70;;;;;;;;;;6111597;23;20151;-81
2022/11/01 14:36:02;;;;;;;8.85;2.30;;;;;;;;;;6089263;23;20089;-80
2022/11/01 14:38:40;;;;;;;4.68;2.15;;;;;;;;;;6114676;23;20327;-80
2022/11/01 14:41:06;;;;;;;4.10;2.05;;;;;;;;;;6114731;23;20032;-80
2022/11/01 14:43:34;;;;;;;6.93;2.25;;;;;;;;;;6090355;23;20401;-80
2022/11/01 14:46:03;;;;;;;12.18;3.17;;;;;;;;;;6091318;23;20451;-80
2022/11/01 14:48:41;;;;;;;7.95;2.30;;;;;;;;;;6091634;23;20057;-76
2022/11/01 14:51:26;;;;;;;7.30;2.38;;;;;;;;;;6090192;23;20033;-76